Time;durP1;ratioP1;P1;durP2;ratioP2;P2;SDS_P1;SDS_P2;PMS_P1;PMS_P2;Temp;Humidity;BMP_temperature;BMP_pressure;BME280_temperature;BME280_humidity;BME280_pressure;Samples;Min_cycle;Max_cycle;Signal;HPM_P1;HPM_P2
2023/01/08 00:01:56;;;;;;;11.95;7.10;;;;;;;;;;4968989;28;20074;-74
2023/01/08 00:04:21;;;;;;;12.38;6.93;;;;;;;;;;4972827;28;20035;-75
2023/01/08 00:06:47;;;;;;;12.18;6.13;;;;;;;;;;4972509;28;20033;-75
2023/01/08 00:09:12;;;;;;;11.70;6.55;;;;;;;;;;4972252;28;20502;-75
2023/01/08 00:11:38;;;;;;;11.90;7.22;;;;;;;;;;4970648;28;21233;-75
2023/01/08 00:14:03;;;;;;;10.30;5.78;;;;;;;;;;4971771;28;20098;-74
2023/01/08 00:16:30;;;;;;;13.63;6.40;;;;;;;;;;4972574;28;20023;-74
2023/01/08 00:18:55;;;;;;;10.10;5.55;;;;;;;;;;4974389;28;20589;-74
2023/01/08 00:21:21;;;;;;;11.40;6.55;;;;;;;;;;4974896;28;20485;-76
2023/01/08 00:23:46;;;;;;;16.25;6.85;;;;;;;;;;4972180;28;20534;-75
2023/01/08 00:26:12;;;;;;;12.30;5.75;;;;;;;;;;4970457;28;20486;-74
2023/01/08 00:28:40;;;;;;;12.50;6.25;;;;;;;;;;4970230;28;20023;-75
2023/01/08 00:31:08;;;;;;;10.88;6.18;;;;;;;;;;4972905;28;20502;-75
2023/01/08 00:33:35;;;;;;;12.73;6.60;;;;;;;;;;4972178;28;20058;-75
2023/01/08 00:36:05;;;;;;;11.85;6.43;;;;;;;;;;4973260;28;20027;-74
2023/01/08 00:38:30;;;;;;;12.40;6.45;;;;;;;;;;4972467;28;20035;-75
2023/01/08 00:40:58;;;;;;;9.18;5.65;;;;;;;;;;4969508;28;20034;-75
2023/01/08 00:43:23;;;;;;;10.18;5.93;;;;;;;;;;4972474;28;20081;-74
2023/01/08 00:45:52;;;;;;;11.55;5.53;;;;;;;;;;4970532;28;20497;-75
2023/01/08 00:48:18;;;;;;;8.98;5.30;;;;;;;;;;4973002;28;20373;-75
2023/01/08 00:50:43;;;;;;;11.93;6.32;;;;;;;;;;4966239;28;20027;-75
2023/01/08 00:53:08;;;;;;;9.32;6.10;;;;;;;;;;4969058;28;20030;-75
2023/01/08 00:55:34;;;;;;;9.93;5.30;;;;;;;;;;4973192;28;20034;-75
2023/01/08 00:57:59;;;;;;;11.73;6.88;;;;;;;;;;4973358;28;20147;-74
2023/01/08 01:00:25;;;;;;;11.48;6.40;;;;;;;;;;4973189;28;20389;-74
2023/01/08 01:02:50;;;;;;;11.52;6.38;;;;;;;;;;4988887;28;20031;-75
2023/01/08 01:05:20;;;;;;;14.90;6.85;;;;;;;;;;4970411;28;20027;-75
2023/01/08 01:07:48;;;;;;;14.20;6.10;;;;;;;;;;4971975;28;20035;-75
2023/01/08 01:10:16;;;;;;;12.55;6.15;;;;;;;;;;4976972;28;20022;-75
2023/01/08 01:12:42;;;;;;;14.52;7.30;;;;;;;;;;4982057;28;20401;-74
2023/01/08 01:15:16;;;;;;;12.75;6.88;;;;;;;;;;4972828;28;20050;-75
2023/01/08 01:17:45;;;;;;;11.60;5.93;;;;;;;;;;4969655;28;20031;-74
2023/01/08 01:20:14;;;;;;;8.05;5.18;;;;;;;;;;4960332;28;20027;-74
2023/01/08 01:22:43;;;;;;;8.37;5.00;;;;;;;;;;4962488;28;20040;-74
2023/01/08 01:25:09;;;;;;;7.43;4.75;;;;;;;;;;4968317;28;20762;-75
2023/01/08 01:27:36;;;;;;;8.73;5.70;;;;;;;;;;4971542;28;20536;-75
2023/01/08 01:30:03;;;;;;;10.05;5.60;;;;;;;;;;4971934;28;20038;-75
2023/01/08 01:32:28;;;;;;;9.00;4.82;;;;;;;;;;4986898;28;20027;-75
2023/01/08 01:34:54;;;;;;;6.90;4.85;;;;;;;;;;4962715;28;20103;-75
2023/01/08 01:37:19;;;;;;;9.77;5.25;;;;;;;;;;4971055;28;21079;-75
2023/01/08 01:39:47;;;;;;;10.55;5.38;;;;;;;;;;4971528;28;20030;-75
2023/01/08 01:42:38;;;;;;;12.45;4.53;;;;;;;;;;4971386;28;20030;-74
2023/01/08 01:45:16;;;;;;;8.70;4.95;;;;;;;;;;4970516;28;20035;-74
2023/01/08 01:47:53;;;;;;;7.57;4.65;;;;;;;;;;4966362;28;20027;-75
2023/01/08 01:50:27;;;;;;;10.73;4.20;;;;;;;;;;4966009;28;20074;-75
2023/01/08 01:53:02;;;;;;;9.82;5.70;;;;;;;;;;4971136;28;20027;-75
2023/01/08 01:55:28;;;;;;;9.90;5.70;;;;;;;;;;4968245;28;20370;-75
2023/01/08 01:58:23;;;;;;;9.88;5.82;;;;;;;;;;4969781;28;20101;-75
2023/01/08 02:00:51;;;;;;;11.93;6.28;;;;;;;;;;4970528;28;20117;-76
2023/01/08 02:03:23;;;;;;;11.35;6.00;;;;;;;;;;4969407;28;20031;-76
2023/01/08 02:05:52;;;;;;;8.80;5.18;;;;;;;;;;4967715;28;20026;-76
2023/01/08 02:08:45;;;;;;;9.20;5.40;;;;;;;;;;4969483;28;20026;-74
2023/01/08 02:11:31;;;;;;;11.50;5.85;;;;;;;;;;4984940;28;20065;-75
2023/01/08 02:14:06;;;;;;;8.85;5.13;;;;;;;;;;4959754;28;20144;-76
2023/01/08 02:16:46;;;;;;;9.45;4.95;;;;;;;;;;4973884;28;20022;-76
2023/01/08 02:19:37;;;;;;;9.10;4.82;;;;;;;;;;4974815;28;20355;-76
2023/01/08 02:22:17;;;;;;;8.70;5.05;;;;;;;;;;4967420;28;20025;-75
2023/01/08 02:24:56;;;;;;;12.48;5.97;;;;;;;;;;4974144;28;20038;-75
2023/01/08 02:27:25;;;;;;;9.90;5.38;;;;;;;;;;4973019;28;20393;-75
2023/01/08 02:29:53;;;;;;;8.47;5.17;;;;;;;;;;4974365;28;20093;-74
2023/01/08 02:32:24;;;;;;;9.13;4.80;;;;;;;;;;4974698;28;20074;-74
2023/01/08 02:34:50;;;;;;;9.48;5.43;;;;;;;;;;4972559;28;20037;-76
2023/01/08 02:37:15;;;;;;;8.52;4.82;;;;;;;;;;4964610;28;20030;-75
2023/01/08 02:40:10;;;;;;;9.80;5.43;;;;;;;;;;4967475;28;20042;-75
2023/01/08 02:43:16;;;;;;;12.43;5.22;;;;;;;;;;4962554;28;20026;-75
2023/01/08 02:45:42;;;;;;;8.43;4.72;;;;;;;;;;4965262;28;20046;-75
2023/01/08 02:48:40;;;;;;;9.18;5.13;;;;;;;;;;4968612;28;20098;-75
2023/01/08 02:51:27;;;;;;;9.18;5.25;;;;;;;;;;4971456;28;20022;-75
2023/01/08 02:53:58;;;;;;;7.72;4.53;;;;;;;;;;4969230;28;20465;-75
2023/01/08 02:56:30;;;;;;;9.23;5.18;;;;;;;;;;4973720;28;20034;-75
2023/01/08 02:58:58;;;;;;;6.88;4.35;;;;;;;;;;4974923;28;20026;-74
2023/01/08 03:01:28;;;;;;;7.25;4.55;;;;;;;;;;4972308;28;20347;-75
2023/01/08 03:04:03;;;;;;;;;;;;;;;;;;4988116;28;20456;-75
2023/01/08 03:06:31;;;;;;;7.35;4.38;;;;;;;;;;4974190;28;19914;-75
2023/01/08 03:09:01;;;;;;;6.82;4.03;;;;;;;;;;4984602;28;20042;-75
2023/01/08 03:11:35;;;;;;;8.98;4.57;;;;;;;;;;4973128;28;20035;-75
2023/01/08 03:14:20;;;;;;;9.13;4.22;;;;;;;;;;4986118;28;20050;-75
2023/01/08 03:16:50;;;;;;;7.57;4.22;;;;;;;;;;4974013;28;20097;-75
2023/01/08 03:19:21;;;;;;;6.43;3.63;;;;;;;;;;4969592;28;20027;-75
2023/01/08 03:21:51;;;;;;;5.95;4.03;;;;;;;;;;4973784;28;20062;-75
2023/01/08 03:24:21;;;;;;;7.78;3.95;;;;;;;;;;4972261;28;20029;-76
2023/01/08 03:26:48;;;;;;;6.07;3.60;;;;;;;;;;4971926;28;20118;-76
2023/01/08 03:29:17;;;;;;;6.78;3.95;;;;;;;;;;4973579;28;20022;-76
2023/01/08 03:31:45;;;;;;;6.67;3.60;;;;;;;;;;4972443;28;20030;-75
2023/01/08 03:34:13;;;;;;;6.72;3.58;;;;;;;;;;4972002;28;20054;-75
2023/01/08 03:36:42;;;;;;;5.75;3.70;;;;;;;;;;4972046;28;20486;-75
2023/01/08 03:39:18;;;;;;;6.63;4.03;;;;;;;;;;4967999;28;20072;-75
2023/01/08 03:41:45;;;;;;;6.45;3.70;;;;;;;;;;4977554;28;20302;-74
2023/01/08 03:44:10;;;;;;;6.05;3.90;;;;;;;;;;4979163;28;20027;-76
2023/01/08 03:46:45;;;;;;;6.30;3.55;;;;;;;;;;4973105;28;20035;-74
2023/01/08 03:49:11;;;;;;;6.22;3.30;;;;;;;;;;4972898;28;20030;-74
2023/01/08 03:51:46;;;;;;;6.18;3.47;;;;;;;;;;4972875;28;20034;-75
2023/01/08 03:54:17;;;;;;;7.68;4.13;;;;;;;;;;4987584;28;20408;-75
2023/01/08 03:56:43;;;;;;;8.32;4.18;;;;;;;;;;4972696;28;20106;-75
2023/01/08 03:59:10;;;;;;;6.60;4.35;;;;;;;;;;4973076;28;20117;-75
2023/01/08 04:01:35;;;;;;;8.20;4.53;;;;;;;;;;4970786;28;20508;-77
2023/01/08 04:04:01;;;;;;;6.15;4.47;;;;;;;;;;4972665;28;20039;-75
2023/01/08 04:06:26;;;;;;;7.70;3.95;;;;;;;;;;4972648;28;20022;-75
2023/01/08 04:08:51;;;;;;;7.78;4.05;;;;;;;;;;4972667;28;20034;-75
2023/01/08 04:11:22;;;;;;;7.78;3.97;;;;;;;;;;4972830;28;20050;-74
2023/01/08 04:13:50;;;;;;;8.75;4.80;;;;;;;;;;4972676;28;20035;-75
2023/01/08 04:16:15;;;;;;;10.18;5.97;;;;;;;;;;4972688;28;20039;-75
2023/01/08 04:18:41;;;;;;;13.07;7.43;;;;;;;;;;4970381;28;20028;-75
2023/01/08 04:21:08;;;;;;;14.35;8.43;;;;;;;;;;4972454;28;20098;-75
2023/01/08 04:23:34;;;;;;;15.25;9.27;;;;;;;;;;4968521;28;20113;-74
2023/01/08 04:26:03;;;;;;;15.90;9.20;;;;;;;;;;4966416;28;20098;-74
2023/01/08 04:28:29;;;;;;;17.95;9.75;;;;;;;;;;4972252;28;20055;-75
2023/01/08 04:30:55;;;;;;;17.88;9.70;;;;;;;;;;4969053;28;20031;-75
2023/01/08 04:33:20;;;;;;;19.17;10.13;;;;;;;;;;4972179;28;20438;-74
2023/01/08 04:35:45;;;;;;;17.58;9.63;;;;;;;;;;4970835;28;20019;-75
2023/01/08 04:38:13;;;;;;;16.73;10.27;;;;;;;;;;4971151;28;20022;-75
2023/01/08 04:40:38;;;;;;;16.83;9.98;;;;;;;;;;4970912;28;20027;-75
2023/01/08 04:43:04;;;;;;;15.65;9.25;;;;;;;;;;4972622;28;20034;-75
2023/01/08 04:45:32;;;;;;;19.88;10.25;;;;;;;;;;4964936;28;20529;-75
2023/01/08 04:47:58;;;;;;;16.02;10.00;;;;;;;;;;4972727;28;20026;-75
2023/01/08 04:50:27;;;;;;;15.48;9.95;;;;;;;;;;4972788;28;20185;-74
2023/01/08 04:52:52;;;;;;;20.93;10.53;;;;;;;;;;4961858;28;20085;-75
2023/01/08 04:55:18;;;;;;;20.00;10.52;;;;;;;;;;4972352;28;20496;-75
2023/01/08 04:57:43;;;;;;;17.90;10.20;;;;;;;;;;4971881;28;20033;-74
2023/01/08 05:00:12;;;;;;;21.73;11.27;;;;;;;;;;4970879;28;20560;-76
2023/01/08 05:02:38;;;;;;;21.50;10.45;;;;;;;;;;4975686;28;20022;-75
2023/01/08 05:05:04;;;;;;;23.88;12.43;;;;;;;;;;4971702;28;20029;-74
2023/01/08 05:07:29;;;;;;;24.80;12.57;;;;;;;;;;4971789;28;20113;-76
2023/01/08 05:09:55;;;;;;;24.88;12.20;;;;;;;;;;4968981;28;20065;-75
2023/01/08 05:12:20;;;;;;;20.15;11.02;;;;;;;;;;4971567;28;20029;-75
2023/01/08 05:14:45;;;;;;;23.25;11.48;;;;;;;;;;4968714;28;20022;-75
2023/01/08 05:17:11;;;;;;;19.63;10.45;;;;;;;;;;4966613;28;20023;-75
2023/01/08 05:19:36;;;;;;;16.92;8.65;;;;;;;;;;4966886;28;20394;-75
2023/01/08 05:22:04;;;;;;;12.73;7.63;;;;;;;;;;4967704;28;20054;-74
2023/01/08 05:24:29;;;;;;;12.57;6.40;;;;;;;;;;4970561;28;20027;-74
2023/01/08 05:26:55;;;;;;;11.45;5.60;;;;;;;;;;4967772;28;20027;-75
2023/01/08 05:29:20;;;;;;;9.88;5.18;;;;;;;;;;4965885;28;20038;-75
2023/01/08 05:31:50;;;;;;;7.47;5.03;;;;;;;;;;4971415;28;20062;-75
2023/01/08 05:34:16;;;;;;;8.75;5.40;;;;;;;;;;4970694;28;20019;-75
2023/01/08 05:36:44;;;;;;;8.55;4.70;;;;;;;;;;4971475;28;20030;-75
2023/01/08 05:39:09;;;;;;;9.65;5.20;;;;;;;;;;4971165;28;20482;-76
2023/01/08 05:41:37;;;;;;;8.30;5.28;;;;;;;;;;4970368;28;20030;-75
2023/01/08 05:44:03;;;;;;;8.80;4.90;;;;;;;;;;4969716;28;20362;-75
2023/01/08 05:46:31;;;;;;;7.88;5.35;;;;;;;;;;4969076;28;20037;-75
2023/01/08 05:48:59;;;;;;;7.90;5.10;;;;;;;;;;4967609;28;20019;-75
2023/01/08 05:51:24;;;;;;;11.57;5.75;;;;;;;;;;4967558;28;20394;-74
2023/01/08 05:53:49;;;;;;;8.68;5.53;;;;;;;;;;4971181;28;20033;-75
2023/01/08 05:56:15;;;;;;;8.32;5.13;;;;;;;;;;4973494;28;20117;-75
2023/01/08 05:58:40;;;;;;;9.57;5.80;;;;;;;;;;4975323;28;20531;-75
2023/01/08 06:01:10;;;;;;;8.30;4.70;;;;;;;;;;4975519;28;20081;-75
2023/01/08 06:03:36;;;;;;;7.13;4.82;;;;;;;;;;4974065;28;20097;-75
2023/01/08 06:06:06;;;;;;;8.10;5.22;;;;;;;;;;4974650;28;20118;-75
2023/01/08 06:08:34;;;;;;;8.45;4.68;;;;;;;;;;4975561;28;20093;-76
2023/01/08 06:11:01;;;;;;;9.07;4.32;;;;;;;;;;4976929;28;20120;-75
2023/01/08 06:13:27;;;;;;;7.93;4.32;;;;;;;;;;4985871;28;20074;-75
2023/01/08 06:15:55;;;;;;;8.38;4.45;;;;;;;;;;4980027;28;20062;-78
2023/01/08 06:18:20;;;;;;;6.95;4.10;;;;;;;;;;4970842;28;20401;-76
2023/01/08 06:20:46;;;;;;;6.35;4.20;;;;;;;;;;4968374;28;20038;-75
2023/01/08 06:23:11;;;;;;;7.50;4.38;;;;;;;;;;4971147;28;20052;-75
2023/01/08 06:25:37;;;;;;;7.55;4.68;;;;;;;;;;4975524;28;20500;-75
2023/01/08 06:28:03;;;;;;;6.70;4.15;;;;;;;;;;4975919;28;20107;-76
2023/01/08 06:30:29;;;;;;;6.05;4.00;;;;;;;;;;4990955;28;20154;-76
2023/01/08 06:32:59;;;;;;;6.57;3.63;;;;;;;;;;4968224;28;20062;-76
2023/01/08 06:35:25;;;;;;;5.68;3.45;;;;;;;;;;4977120;28;20035;-76
2023/01/08 06:37:53;;;;;;;4.45;2.85;;;;;;;;;;4974632;28;20066;-76
2023/01/08 06:40:23;;;;;;;5.45;3.00;;;;;;;;;;4972435;28;20466;-76
2023/01/08 06:42:49;;;;;;;5.95;3.47;;;;;;;;;;4975332;28;20710;-76
2023/01/08 06:45:14;;;;;;;3.75;2.60;;;;;;;;;;4973878;28;20029;-76
2023/01/08 06:47:40;;;;;;;4.72;2.55;;;;;;;;;;4973380;28;20037;-75
2023/01/08 06:50:05;;;;;;;3.80;2.80;;;;;;;;;;4969948;28;20445;-76
2023/01/08 06:52:31;;;;;;;3.22;2.42;;;;;;;;;;4974344;28;20035;-76
2023/01/08 06:54:57;;;;;;;3.72;2.72;;;;;;;;;;4971439;28;20027;-77
2023/01/08 06:57:22;;;;;;;5.50;3.03;;;;;;;;;;4974176;28;20458;-75
2023/01/08 06:59:48;;;;;;;4.57;2.72;;;;;;;;;;4986489;28;20038;-76
2023/01/08 07:02:14;;;;;;;4.00;2.58;;;;;;;;;;4968994;28;20062;-75
2023/01/08 07:04:40;;;;;;;3.90;2.65;;;;;;;;;;4964870;28;20026;-76
2023/01/08 07:07:05;;;;;;;4.05;2.63;;;;;;;;;;4972265;28;20030;-75
2023/01/08 07:09:33;;;;;;;4.47;2.75;;;;;;;;;;4973254;28;20030;-75
2023/01/08 07:12:00;;;;;;;2.85;2.20;;;;;;;;;;4974671;28;20027;-76
2023/01/08 07:14:26;;;;;;;3.22;2.17;;;;;;;;;;4969952;28;20026;-76
2023/01/08 07:16:51;;;;;;;2.40;2.08;;;;;;;;;;4972724;28;20500;-76
2023/01/08 07:19:17;;;;;;;2.30;1.98;;;;;;;;;;4975371;28;20110;-76
2023/01/08 07:21:42;;;;;;;5.07;3.00;;;;;;;;;;4972351;28;20042;-76
2023/01/08 07:24:08;;;;;;;44.70;17.60;;;;;;;;;;4989090;28;20035;-76
2023/01/08 07:26:33;;;;;;;11.20;5.65;;;;;;;;;;4972070;28;20022;-76
2023/01/08 07:28:59;;;;;;;3.90;2.38;;;;;;;;;;4974106;28;20031;-76
2023/01/08 07:31:24;;;;;;;5.93;4.00;;;;;;;;;;4973917;28;20442;-76
2023/01/08 07:33:50;;;;;;;6.55;3.85;;;;;;;;;;4973570;28;20033;-76
2023/01/08 07:36:21;;;;;;;6.90;4.38;;;;;;;;;;4973216;28;20031;-75
2023/01/08 07:38:46;;;;;;;6.10;3.33;;;;;;;;;;4970941;28;20122;-75
2023/01/08 07:41:12;;;;;;;4.78;1.85;;;;;;;;;;4974318;28;20113;-76
2023/01/08 07:43:39;;;;;;;4.78;2.50;;;;;;;;;;4974732;28;20030;-76
2023/01/08 07:46:05;;;;;;;2.63;1.90;;;;;;;;;;4974096;28;20019;-76
2023/01/08 07:48:33;;;;;;;3.83;2.63;;;;;;;;;;4974121;28;20033;-77
2023/01/08 07:51:05;;;;;;;2.80;1.92;;;;;;;;;;4976260;28;20038;-76
2023/01/08 07:53:31;;;;;;;1.55;1.45;;;;;;;;;;4975868;28;20066;-76
2023/01/08 07:56:05;;;;;;;2.25;1.60;;;;;;;;;;4968623;28;20109;-76
2023/01/08 07:58:30;;;;;;;1.67;1.58;;;;;;;;;;4975603;28;20496;-76
2023/01/08 08:00:56;;;;;;;1.92;1.45;;;;;;;;;;4975628;28;20077;-76
2023/01/08 08:03:22;;;;;;;1.92;1.60;;;;;;;;;;4976030;28;20110;-75
2023/01/08 08:05:48;;;;;;;1.60;1.40;;;;;;;;;;4989412;28;20389;-76
2023/01/08 08:08:13;;;;;;;1.65;1.55;;;;;;;;;;4975861;28;20030;-76
2023/01/08 08:10:40;;;;;;;2.85;1.52;;;;;;;;;;4973670;28;20038;-76
2023/01/08 08:13:06;;;;;;;2.63;1.80;;;;;;;;;;4987968;28;20081;-76
2023/01/08 08:15:33;;;;;;;3.00;1.90;;;;;;;;;;4975081;28;20030;-75
2023/01/08 08:17:58;;;;;;;1.70;1.55;;;;;;;;;;4976840;28;20066;-75
2023/01/08 08:20:26;;;;;;;3.17;2.10;;;;;;;;;;4973640;28;20029;-76
2023/01/08 08:22:59;;;;;;;4.72;2.03;;;;;;;;;;4977947;28;20027;-77
2023/01/08 08:25:27;;;;;;;2.95;1.90;;;;;;;;;;4972782;28;20046;-75
2023/01/08 08:27:56;;;;;;;3.88;2.30;;;;;;;;;;4976210;28;20036;-76
2023/01/08 08:30:21;;;;;;;2.63;2.00;;;;;;;;;;4982942;28;20023;-75
2023/01/08 08:32:47;;;;;;;2.63;1.75;;;;;;;;;;4963879;28;20034;-76
2023/01/08 08:35:12;;;;;;;1.90;1.40;;;;;;;;;;4986827;28;20022;-77
2023/01/08 08:37:40;;;;;;;3.35;2.22;;;;;;;;;;4984057;28;20023;-76
2023/01/08 08:40:06;;;;;;;4.38;2.40;;;;;;;;;;4966882;28;20254;-76
2023/01/08 08:42:31;;;;;;;4.10;2.90;;;;;;;;;;4959286;28;20497;-76
2023/01/08 08:44:56;;;;;;;5.25;2.88;;;;;;;;;;4968090;28;20061;-76
2023/01/08 08:47:22;;;;;;;7.43;3.55;;;;;;;;;;4971699;28;20030;-77
2023/01/08 08:49:47;;;;;;;2.22;2.03;;;;;;;;;;4969946;28;20033;-76
2023/01/08 08:52:13;;;;;;;3.22;1.90;;;;;;;;;;4973199;28;20477;-77
2023/01/08 08:54:40;;;;;;;3.50;2.10;;;;;;;;;;4973283;28;20110;-74
2023/01/08 08:57:09;;;;;;;2.28;1.92;;;;;;;;;;4972189;28;20079;-75
2023/01/08 08:59:35;;;;;;;1.60;1.50;;;;;;;;;;4969552;28;20025;-76
2023/01/08 09:02:00;;;;;;;2.88;2.10;;;;;;;;;;4965196;28;20194;-75
2023/01/08 09:04:29;;;;;;;2.13;1.85;;;;;;;;;;4971286;28;20038;-76
2023/01/08 09:06:55;;;;;;;5.30;2.50;;;;;;;;;;4966369;28;20517;-76
2023/01/08 09:09:20;;;;;;;2.72;1.83;;;;;;;;;;4963865;28;20043;-76
2023/01/08 09:11:47;;;;;;;3.65;1.80;;;;;;;;;;4966665;28;20043;-76
2023/01/08 09:14:20;;;;;;;2.65;2.00;;;;;;;;;;4967653;28;20041;-76
2023/01/08 09:16:45;;;;;;;2.67;1.80;;;;;;;;;;4983930;28;20496;-76
2023/01/08 09:19:13;;;;;;;1.75;1.63;;;;;;;;;;4970133;28;20162;-76
2023/01/08 09:21:38;;;;;;;1.55;1.45;;;;;;;;;;4966831;28;20026;-77
2023/01/08 09:24:04;;;;;;;3.55;1.80;;;;;;;;;;4979219;28;20269;-75
2023/01/08 09:26:30;;;;;;;2.33;2.13;;;;;;;;;;4963545;28;20024;-77
2023/01/08 09:28:57;;;;;;;15.25;5.25;;;;;;;;;;4969684;28;20150;-77
2023/01/08 09:31:23;;;;;;;3.50;1.88;;;;;;;;;;4980829;28;20199;-77
2023/01/08 09:33:51;;;;;;;2.83;1.90;;;;;;;;;;4965823;28;20038;-76
2023/01/08 09:36:20;;;;;;;3.13;1.90;;;;;;;;;;4968422;28;20037;-76
2023/01/08 09:38:47;;;;;;;1.70;1.60;;;;;;;;;;4970240;28;20078;-76
2023/01/08 09:41:20;;;;;;;1.77;1.45;;;;;;;;;;4969745;28;20023;-76
2023/01/08 09:43:49;;;;;;;2.00;1.50;;;;;;;;;;4970292;28;20035;-76
2023/01/08 09:46:17;;;;;;;3.92;2.38;;;;;;;;;;4967314;28;20095;-76
2023/01/08 09:48:43;;;;;;;3.70;1.80;;;;;;;;;;4985521;28;20038;-76
2023/01/08 09:51:12;;;;;;;4.22;2.40;;;;;;;;;;4968821;28;20053;-76
2023/01/08 09:53:38;;;;;;;3.22;2.00;;;;;;;;;;4970054;28;20031;-76
2023/01/08 09:56:18;;;;;;;1.90;1.58;;;;;;;;;;4966427;28;20113;-75
2023/01/08 09:58:45;;;;;;;4.18;1.70;;;;;;;;;;4965366;28;20027;-75
2023/01/08 10:01:17;;;;;;;2.20;1.50;;;;;;;;;;4968055;28;20031;-76
2023/01/08 10:03:57;;;;;;;2.03;1.65;;;;;;;;;;4967003;28;20030;-75
2023/01/08 10:06:23;;;;;;;4.05;1.48;;;;;;;;;;4970341;28;20027;-76
2023/01/08 10:08:50;;;;;;;3.88;2.30;;;;;;;;;;4971611;28;20118;-75
2023/01/08 10:11:16;;;;;;;2.33;1.70;;;;;;;;;;4967178;28;20422;-76
2023/01/08 10:13:49;;;;;;;3.58;2.25;;;;;;;;;;4985111;28;20129;-75
2023/01/08 10:16:29;;;;;;;2.40;1.77;;;;;;;;;;4965430;28;20058;-75
2023/01/08 10:18:58;;;;;;;;;;;;;;;;;;4983118;28;20031;-75
2023/01/08 10:21:34;;;;;;;3.45;2.42;;;;;;;;;;4963599;28;20009;-75
2023/01/08 10:24:00;;;;;;;3.95;2.15;;;;;;;;;;4970356;28;20027;-75
2023/01/08 10:26:36;;;;;;;2.55;2.03;;;;;;;;;;4969565;28;20445;-75
2023/01/08 10:29:12;;;;;;;1.67;1.55;;;;;;;;;;4970091;28;20043;-75
2023/01/08 10:31:43;;;;;;;2.10;1.85;;;;;;;;;;4968920;28;20031;-76
2023/01/08 10:34:09;;;;;;;4.05;2.03;;;;;;;;;;4971022;28;20027;-76
2023/01/08 10:36:39;;;;;;;2.17;1.70;;;;;;;;;;4973234;28;20034;-76
2023/01/08 10:39:05;;;;;;;2.58;1.83;;;;;;;;;;4975138;28;20023;-76
2023/01/08 10:41:38;;;;;;;1.77;1.60;;;;;;;;;;4975287;28;20101;-76
2023/01/08 10:44:06;;;;;;;2.85;2.00;;;;;;;;;;4967043;28;20026;-77
2023/01/08 10:46:49;;;;;;;2.20;1.90;;;;;;;;;;4978098;28;20037;-76
2023/01/08 10:49:41;;;;;;;3.42;1.88;;;;;;;;;;4964027;28;20117;-76
2023/01/08 10:52:24;;;;;;;2.65;1.75;;;;;;;;;;4973137;28;20073;-77
2023/01/08 10:54:49;;;;;;;2.50;1.80;;;;;;;;;;4964896;28;20058;-76
2023/01/08 10:57:26;;;;;;;2.80;2.15;;;;;;;;;;4969344;28;20470;-77
2023/01/08 10:59:52;;;;;;;3.35;2.60;;;;;;;;;;4972986;28;20050;-76
2023/01/08 11:02:27;;;;;;;2.25;1.90;;;;;;;;;;4970413;28;20019;-77
2023/01/08 11:04:52;;;;;;;2.13;1.80;;;;;;;;;;4966443;28;20520;-75
2023/01/08 11:07:23;;;;;;;4.78;2.25;;;;;;;;;;4973821;28;20066;-75
2023/01/08 11:09:50;;;;;;;3.55;2.30;;;;;;;;;;4971842;28;20030;-76
2023/01/08 11:12:28;;;;;;;5.78;2.40;;;;;;;;;;4985351;28;20023;-75
2023/01/08 11:14:53;;;;;;;2.90;2.33;;;;;;;;;;4968642;28;20033;-79
2023/01/08 11:17:18;;;;;;;4.32;1.83;;;;;;;;;;4973288;28;20023;-75
2023/01/08 11:19:44;;;;;;;2.17;1.98;;;;;;;;;;4968903;28;20058;-75
2023/01/08 11:22:24;;;;;;;2.80;2.15;;;;;;;;;;4968605;28;20050;-77
2023/01/08 11:24:51;;;;;;;1.52;1.33;;;;;;;;;;4970200;28;20678;-76
2023/01/08 11:27:40;;;;;;;2.13;1.60;;;;;;;;;;4968729;28;20031;-75
2023/01/08 11:30:17;;;;;;;2.17;1.40;;;;;;;;;;4970654;28;20019;-76
2023/01/08 11:32:45;;;;;;;2.15;1.70;;;;;;;;;;4969280;28;20370;-76
2023/01/08 11:35:16;;;;;;;2.10;1.90;;;;;;;;;;4972211;28;20041;-76
2023/01/08 11:37:53;;;;;;;2.15;1.75;;;;;;;;;;4981309;28;20018;-76
2023/01/08 11:40:32;;;;;;;2.17;1.67;;;;;;;;;;4970604;28;20093;-77
2023/01/08 11:42:57;;;;;;;2.13;1.50;;;;;;;;;;4967138;28;20073;-76
2023/01/08 11:46:04;;;;;;;1.85;1.40;;;;;;;;;;4969880;28;20058;-75
2023/01/08 11:48:57;;;;;;;2.35;1.50;;;;;;;;;;4929921;29;20035;-76
2023/01/08 11:51:40;;;;;;;2.35;1.48;;;;;;;;;;4942834;28;20065;-76
2023/01/08 11:54:29;;;;;;;1.50;1.38;;;;;;;;;;4968506;28;20042;-75
2023/01/08 11:57:18;;;;;;;1.48;1.38;;;;;;;;;;4987224;28;20026;-75
2023/01/08 12:00:11;;;;;;;1.70;1.50;;;;;;;;;;4972096;28;20022;-76
2023/01/08 12:02:46;;;;;;;3.00;1.55;;;;;;;;;;4972451;28;20022;-75
2023/01/08 12:05:43;;;;;;;2.80;1.27;;;;;;;;;;4971293;28;20030;-74
2023/01/08 12:08:40;;;;;;;1.67;1.35;;;;;;;;;;4970797;28;20049;-76
2023/01/08 12:11:45;;;;;;;1.27;1.17;;;;;;;;;;4979179;28;20167;-74
2023/01/08 12:14:40;;;;;;;1.65;1.35;;;;;;;;;;4969053;28;20505;-77
2023/01/08 12:17:29;;;;;;;2.78;1.55;;;;;;;;;;4966152;28;20035;-75
2023/01/08 12:20:29;;;;;;;4.85;1.70;;;;;;;;;;4970831;28;20035;-75
2023/01/08 12:23:16;;;;;;;3.70;2.17;;;;;;;;;;4967322;28;20086;-77
2023/01/08 12:25:59;;;;;;;2.70;1.60;;;;;;;;;;4964848;28;20450;-76
2023/01/08 12:28:45;;;;;;;2.85;1.90;;;;;;;;;;4970279;28;20130;-76
2023/01/08 12:31:24;;;;;;;1.95;1.50;;;;;;;;;;4969182;28;20039;-77
2023/01/08 12:33:53;;;;;;;1.98;1.30;;;;;;;;;;4970717;28;20031;-78
2023/01/08 12:36:34;;;;;;;2.88;1.63;;;;;;;;;;4972411;28;20034;-75
2023/01/08 12:39:05;;;;;;;3.65;1.90;;;;;;;;;;4967565;28;20023;-75
2023/01/08 12:41:34;;;;;;;2.58;1.88;;;;;;;;;;4986858;28;20036;-75
2023/01/08 12:44:08;;;;;;;1.75;1.60;;;;;;;;;;4971843;28;20027;-79
2023/01/08 12:46:36;;;;;;;2.25;2.00;;;;;;;;;;4973367;28;20306;-76
2023/01/08 12:49:04;;;;;;;3.63;2.08;;;;;;;;;;4983842;28;20035;-77
2023/01/08 12:51:48;;;;;;;3.63;2.15;;;;;;;;;;4972292;28;20033;-76
2023/01/08 12:54:30;;;;;;;2.75;1.80;;;;;;;;;;4967347;28;20629;-76
2023/01/08 12:57:10;;;;;;;3.28;1.50;;;;;;;;;;4971349;28;20085;-76
2023/01/08 12:59:45;;;;;;;2.83;1.70;;;;;;;;;;4967863;28;20521;-77
2023/01/08 13:02:42;;;;;;;2.60;1.67;;;;;;;;;;4967025;28;20058;-76
2023/01/08 13:05:11;;;;;;;2.90;1.63;;;;;;;;;;4967279;28;20030;-76
2023/01/08 13:07:50;;;;;;;1.40;1.30;;;;;;;;;;4970235;28;20077;-76
2023/01/08 13:10:30;;;;;;;2.60;1.70;;;;;;;;;;4965771;28;20558;-76
2023/01/08 13:12:57;;;;;;;4.47;2.20;;;;;;;;;;4966650;28;20114;-75
2023/01/08 13:15:25;;;;;;;2.42;1.40;;;;;;;;;;4963926;28;20401;-76
2023/01/08 13:17:56;;;;;;;4.13;2.40;;;;;;;;;;4966966;28;20050;-75
2023/01/08 13:20:31;;;;;;;4.13;1.98;;;;;;;;;;4970131;28;20065;-76
2023/01/08 13:22:59;;;;;;;3.15;2.08;;;;;;;;;;4966985;28;20033;-75
2023/01/08 13:25:25;;;;;;;2.88;1.98;;;;;;;;;;4967749;28;20026;-76
2023/01/08 13:27:51;;;;;;;2.83;1.85;;;;;;;;;;4966421;28;20035;-77
2023/01/08 13:30:37;;;;;;;1.90;1.60;;;;;;;;;;4981545;28;20035;-75
2023/01/08 13:33:27;;;;;;;1.55;1.35;;;;;;;;;;4968812;28;20034;-76
2023/01/08 13:36:15;;;;;;;2.15;1.50;;;;;;;;;;4966690;28;20031;-75
2023/01/08 13:38:42;;;;;;;2.75;2.05;;;;;;;;;;4981480;28;20041;-76
2023/01/08 13:41:34;;;;;;;3.55;1.80;;;;;;;;;;4966391;28;20022;-76
2023/01/08 13:44:19;;;;;;;2.80;1.38;;;;;;;;;;4967918;28;20031;-75
2023/01/08 13:46:53;;;;;;;4.15;1.80;;;;;;;;;;4968747;28;20026;-75
2023/01/08 13:49:42;;;;;;;9.60;4.82;;;;;;;;;;4967198;28;20077;-76
2023/01/08 13:52:40;;;;;;;4.95;2.55;;;;;;;;;;4981454;28;20031;-76
2023/01/08 13:55:15;;;;;;;6.45;2.45;;;;;;;;;;4969162;28;20480;-75
2023/01/08 13:57:45;;;;;;;2.63;1.65;;;;;;;;;;4968512;28;20030;-76
2023/01/08 14:00:21;;;;;;;2.70;1.70;;;;;;;;;;4964784;28;20031;-76
2023/01/08 14:02:49;;;;;;;2.47;1.58;;;;;;;;;;4969130;28;20119;-76
2023/01/08 14:05:33;;;;;;;20.27;8.90;;;;;;;;;;4967555;28;20033;-76
2023/01/08 14:07:59;;;;;;;3.30;2.28;;;;;;;;;;4967093;28;20494;-75
2023/01/08 14:10:28;;;;;;;2.25;1.80;;;;;;;;;;4967469;28;20134;-75
2023/01/08 14:13:04;;;;;;;1.73;1.60;;;;;;;;;;4971883;28;20023;-76
2023/01/08 14:15:33;;;;;;;5.75;2.35;;;;;;;;;;4965610;28;20026;-76
2023/01/08 14:18:03;;;;;;;3.33;2.40;;;;;;;;;;4971158;28;20058;-76
2023/01/08 14:20:34;;;;;;;3.35;2.28;;;;;;;;;;4968553;28;20087;-74
2023/01/08 14:23:01;;;;;;;7.78;2.70;;;;;;;;;;4973335;28;20377;-76
2023/01/08 14:25:27;;;;;;;4.60;3.35;;;;;;;;;;4983628;28;20085;-75
2023/01/08 14:28:01;;;;;;;2.78;1.65;;;;;;;;;;4972270;28;20090;-75
2023/01/08 14:30:27;;;;;;;4.63;2.13;;;;;;;;;;4990774;28;20457;-76
2023/01/08 14:32:58;;;;;;;4.00;2.00;;;;;;;;;;4971214;28;20030;-76
2023/01/08 14:35:31;;;;;;;2.92;2.17;;;;;;;;;;4972095;28;20035;-76
2023/01/08 14:37:57;;;;;;;3.58;2.10;;;;;;;;;;4983753;28;20118;-76
2023/01/08 14:40:31;;;;;;;4.95;2.70;;;;;;;;;;4967616;28;20065;-76
2023/01/08 14:43:05;;;;;;;3.97;2.45;;;;;;;;;;4962961;28;20501;-75
2023/01/08 14:45:34;;;;;;;5.20;2.65;;;;;;;;;;4977790;28;20027;-75
2023/01/08 14:48:19;;;;;;;3.72;2.17;;;;;;;;;;4965414;28;20086;-76
2023/01/08 14:51:06;;;;;;;4.15;2.50;;;;;;;;;;4971679;28;20026;-75
2023/01/08 14:53:36;;;;;;;3.90;2.40;;;;;;;;;;4971969;28;20085;-75
2023/01/08 14:56:03;;;;;;;;;;;;;;;;;;4974519;28;20367;-75
2023/01/08 14:58:36;;;;;;;3.03;2.00;;;;;;;;;;4974481;28;19910;-76
2023/01/08 15:01:12;;;;;;;1.33;1.15;;;;;;;;;;4977464;28;20034;-75
2023/01/08 15:03:41;;;;;;;2.05;1.30;;;;;;;;;;4969499;28;20014;-76